createdAt,value
2017-07-15T00:01:46.290Z,99317.64
2017-07-15T00:04:12.163Z,99323.27
2017-07-15T00:06:38.001Z,99320.77
2017-07-15T00:09:03.841Z,99321.31
2017-07-15T00:11:29.743Z,99326.36
2017-07-15T00:13:55.544Z,99326.06
2017-07-15T00:16:21.397Z,99318.30
2017-07-15T00:18:47.216Z,99330.34
2017-07-15T00:21:13.069Z,99334.73
2017-07-15T00:23:38.894Z,99346.96
2017-07-15T00:26:04.725Z,99343.09
2017-07-15T00:28:30.580Z,99342.73
2017-07-15T00:30:56.419Z,99344.87
2017-07-15T00:33:22.262Z,99343.52
2017-07-15T00:35:48.091Z,99350.53
2017-07-15T00:38:13.957Z,99354.20
2017-07-15T00:40:39.800Z,99352.55
2017-07-15T00:43:05.655Z,99345.63
2017-07-15T00:45:31.550Z,99345.17
2017-07-15T00:47:57.367Z,99350.32
2017-07-15T00:50:23.227Z,99353.20
2017-07-15T00:52:49.064Z,99355.70
2017-07-15T00:55:14.980Z,99355.17
2017-07-15T00:57:40.845Z,99361.63
2017-07-15T01:00:07.043Z,99362.16
2017-07-15T01:02:32.897Z,99362.92
2017-07-15T01:04:58.701Z,99360.91
2017-07-15T01:07:24.585Z,99364.23
2017-07-15T01:09:50.404Z,99359.20
2017-07-15T01:12:16.247Z,99360.56
2017-07-15T01:14:42.062Z,99360.02
2017-07-15T01:17:07.913Z,99358.66
2017-07-15T01:19:33.739Z,99355.52
2017-07-15T01:21:59.585Z,99358.85
2017-07-15T01:24:25.439Z,99360.52
2017-07-15T01:26:51.265Z,99356.60
2017-07-15T01:29:17.114Z,99360.98
2017-07-15T01:31:42.937Z,99359.86
2017-07-15T01:34:08.825Z,99364.23
2017-07-15T01:36:34.636Z,99369.48
2017-07-15T01:39:00.485Z,99369.52
2017-07-15T01:41:26.377Z,99365.32
2017-07-15T01:43:52.197Z,99361.53
2017-07-15T01:46:18.062Z,99369.58
2017-07-15T01:48:43.898Z,99373.88
2017-07-15T01:51:09.747Z,99370.83
2017-07-15T01:53:35.610Z,99376.14
2017-07-15T01:56:01.436Z,99382.38
2017-07-15T01:58:27.302Z,99388.55
2017-07-15T02:00:53.163Z,99382.44
2017-07-15T02:03:18.990Z,99386.94
2017-07-15T02:05:45.349Z,99387.20
2017-07-15T02:08:11.202Z,99387.05
2017-07-15T02:10:37.042Z,99381.36
2017-07-15T02:13:02.893Z,99386.13
2017-07-15T02:15:28.713Z,99384.23
2017-07-15T02:17:54.950Z,99381.37
2017-07-15T02:20:20.769Z,99381.91
2017-07-15T02:22:46.631Z,99379.42
2017-07-15T02:25:12.490Z,99386.72
2017-07-15T02:27:38.334Z,99390.99
2017-07-15T02:30:04.179Z,99391.66
2017-07-15T02:32:30.001Z,99390.41
2017-07-15T02:34:55.858Z,99388.25
2017-07-15T02:37:21.728Z,99386.47
2017-07-15T02:39:47.617Z,99390.46
2017-07-15T02:42:13.478Z,99388.84
2017-07-15T02:44:39.309Z,99389.68
2017-07-15T02:47:05.157Z,99393.49
2017-07-15T02:49:30.991Z,99400.59
2017-07-15T02:51:56.843Z,99394.84
2017-07-15T02:54:22.678Z,99394.98
2017-07-15T02:56:48.549Z,99390.91
2017-07-15T02:59:14.428Z,99386.16
2017-07-15T03:01:40.249Z,99386.57
2017-07-15T03:04:06.098Z,99392.54
2017-07-15T03:06:31.921Z,99407.05
2017-07-15T03:08:57.778Z,99404.07
2017-07-15T03:11:23.650Z,99408.59
2017-07-15T03:13:49.543Z,99405.48
2017-07-15T03:16:15.369Z,99402.72
2017-07-15T03:18:41.233Z,99402.06
2017-07-15T03:21:07.062Z,99410.11
2017-07-15T03:23:32.917Z,99414.62
2017-07-15T03:25:58.769Z,99412.73
2017-07-15T03:28:24.584Z,99420.08
2017-07-15T03:30:50.433Z,99421.45
2017-07-15T03:33:16.301Z,99433.61
2017-07-15T03:35:42.158Z,99431.95
2017-07-15T03:38:07.986Z,99436.92
2017-07-15T03:40:33.877Z,99432.16
2017-07-15T03:42:59.673Z,99437.30
2017-07-15T03:45:25.767Z,99437.41
2017-07-15T03:47:51.601Z,99441.71
2017-07-15T03:50:17.438Z,99446.84
2017-07-15T03:52:43.290Z,99451.95
2017-07-15T03:55:09.906Z,99455.14
2017-07-15T03:57:35.740Z,99455.02
2017-07-15T04:00:01.556Z,99458.16
2017-07-15T04:02:27.414Z,99459.12
2017-07-15T04:04:53.238Z,99466.88
2017-07-15T04:07:19.096Z,99463.20
2017-07-15T04:09:44.933Z,99468.37
2017-07-15T04:12:10.774Z,99465.23
2017-07-15T04:14:36.615Z,99466.23
2017-07-15T04:17:02.481Z,99469.79
2017-07-15T04:19:28.353Z,99472.97
2017-07-15T04:21:54.223Z,99474.46
2017-07-15T04:24:20.069Z,99481.41
2017-07-15T04:26:45.900Z,99480.73
2017-07-15T04:29:11.719Z,99490.58
2017-07-15T04:31:44.405Z,99496.61
2017-07-15T04:34:10.239Z,99495.50
2017-07-15T04:36:36.080Z,99497.85
2017-07-15T04:39:01.959Z,99498.11
2017-07-15T04:41:27.965Z,99496.91
2017-07-15T04:43:53.780Z,99494.27
2017-07-15T04:46:19.611Z,99501.41
2017-07-15T04:48:45.465Z,99502.11
2017-07-15T04:51:11.285Z,99504.67
2017-07-15T04:53:37.173Z,99509.72
2017-07-15T04:56:03.061Z,99510.95
2017-07-15T04:58:28.897Z,99509.05
2017-07-15T05:00:54.739Z,99507.56
2017-07-15T05:03:20.570Z,99517.78
2017-07-15T05:05:46.441Z,99518.60
2017-07-15T05:08:12.283Z,99518.89
2017-07-15T05:10:38.131Z,99522.16
2017-07-15T05:13:03.972Z,99520.37
2017-07-15T05:15:29.961Z,99525.30
2017-07-15T05:17:55.789Z,99528.18
2017-07-15T05:20:21.603Z,99528.18
2017-07-15T05:22:47.435Z,99534.46
2017-07-15T05:25:13.235Z,99536.91
2017-07-15T05:27:39.088Z,99546.20
2017-07-15T05:30:04.954Z,99543.59
2017-07-15T05:32:30.763Z,99551.37
2017-07-15T05:34:56.625Z,99548.92
2017-07-15T05:37:22.434Z,99560.09
2017-07-15T05:39:48.279Z,99558.28
2017-07-15T05:42:14.162Z,99555.27
2017-07-15T05:44:40.032Z,99555.30
2017-07-15T05:47:05.882Z,99555.75
2017-07-15T05:49:31.716Z,99556.03
2017-07-15T05:51:57.556Z,99555.84
2017-07-15T05:54:23.375Z,99556.16
2017-07-15T05:56:49.229Z,99551.40
2017-07-15T05:59:15.157Z,99546.83
2017-07-15T06:01:41.015Z,99548.95
2017-07-15T06:04:06.821Z,99543.50
2017-07-15T06:06:32.653Z,99544.45
2017-07-15T06:08:58.519Z,99548.80
2017-07-15T06:11:24.330Z,99546.36
2017-07-15T06:13:50.181Z,99548.80
2017-07-15T06:16:16.042Z,99546.07
2017-07-15T06:18:41.858Z,99549.47
2017-07-15T06:21:07.724Z,99553.30
2017-07-15T06:23:33.569Z,99552.63
2017-07-15T06:25:59.403Z,99559.27
2017-07-15T06:28:25.220Z,99567.89
2017-07-15T06:30:51.088Z,99562.30
2017-07-15T06:33:16.885Z,99566.69
2017-07-15T06:35:42.751Z,99574.14
2017-07-15T06:38:08.574Z,99572.77
2017-07-15T06:40:34.732Z,99577.15
2017-07-15T06:43:00.654Z,99574.30
2017-07-15T06:45:26.482Z,99571.28
2017-07-15T06:47:52.366Z,99565.16
2017-07-15T06:50:18.190Z,99562.05
2017-07-15T06:52:44.050Z,99569.28
2017-07-15T06:55:09.872Z,99565.16
2017-07-15T06:57:35.717Z,99555.23
2017-07-15T07:00:01.569Z,99558.50
2017-07-15T07:02:27.442Z,99564.91
2017-07-15T07:04:53.338Z,99571.84
2017-07-15T07:07:19.183Z,99567.89
2017-07-15T07:09:45.012Z,99565.27
2017-07-15T07:12:10.855Z,99566.66
2017-07-15T07:14:36.707Z,99561.89
2017-07-15T07:17:02.546Z,99573.65
2017-07-15T07:19:28.378Z,99570.44
2017-07-15T07:21:54.182Z,99581.66
2017-07-15T07:24:20.076Z,99569.66
2017-07-15T07:26:45.920Z,99571.16
2017-07-15T07:29:11.739Z,99570.61
2017-07-15T07:31:37.596Z,99566.53
2017-07-15T07:34:03.405Z,99562.44
2017-07-15T07:36:29.364Z,99564.36
2017-07-15T07:38:55.234Z,99565.85
2017-07-15T07:41:21.135Z,99562.05
2017-07-15T07:43:47.025Z,99561.61
2017-07-15T07:46:12.886Z,99570.46
2017-07-15T07:48:38.739Z,99572.20
2017-07-15T07:51:04.642Z,99576.50
2017-07-15T07:53:30.505Z,99571.43
2017-07-15T07:55:56.395Z,99574.41
2017-07-15T07:58:22.407Z,99580.80
2017-07-15T08:00:48.261Z,99580.89
2017-07-15T08:03:14.115Z,99582.69
2017-07-15T08:05:39.955Z,99584.40
2017-07-15T08:08:05.813Z,99588.17
2017-07-15T08:10:31.673Z,99586.00
2017-07-15T08:12:57.544Z,99594.00
2017-07-15T08:15:23.499Z,99591.63
2017-07-15T08:17:49.404Z,99597.00
2017-07-15T08:20:15.374Z,99593.31
2017-07-15T08:22:41.212Z,99595.75
2017-07-15T08:25:07.134Z,99599.55
2017-07-15T08:27:32.976Z,99599.99
2017-07-15T08:29:58.862Z,99600.08
2017-07-15T08:32:24.739Z,99601.40
2017-07-15T08:34:50.757Z,99600.49
2017-07-15T08:37:16.748Z,99599.03
2017-07-15T08:39:42.616Z,99606.38
2017-07-15T08:42:08.509Z,99603.02
2017-07-15T08:44:35.416Z,99607.29
2017-07-15T08:47:01.331Z,99610.95
2017-07-15T08:49:27.172Z,99611.58
2017-07-15T08:51:53.058Z,99615.11
2017-07-15T08:54:18.907Z,99609.45
2017-07-15T08:56:44.795Z,99609.19
2017-07-15T08:59:10.635Z,99606.41
2017-07-15T09:01:36.563Z,99604.41
2017-07-15T09:04:02.524Z,99602.08
2017-07-15T09:06:28.530Z,99605.50
2017-07-15T09:08:54.705Z,99607.55
2017-07-15T09:11:20.555Z,99608.47
2017-07-15T09:13:46.442Z,99613.25
2017-07-15T09:16:12.269Z,99614.98
2017-07-15T09:18:38.168Z,99620.16
2017-07-15T09:21:04.054Z,99613.16
2017-07-15T09:23:29.936Z,99613.72
2017-07-15T09:25:55.782Z,99611.62
2017-07-15T09:28:22.754Z,99607.81
2017-07-15T09:30:48.696Z,99605.29
2017-07-15T09:33:15.122Z,99608.02
2017-07-15T09:35:41.001Z,99611.42
2017-07-15T09:38:07.717Z,99616.33
2017-07-15T09:40:33.621Z,99610.18
2017-07-15T09:42:59.561Z,99611.66
2017-07-15T09:45:25.448Z,99611.87
2017-07-15T09:47:51.438Z,99609.44
2017-07-15T09:50:17.364Z,99612.23
2017-07-15T09:52:43.546Z,99609.94
2017-07-15T09:55:09.431Z,99609.55
2017-07-15T09:57:35.288Z,99620.40
2017-07-15T10:00:01.139Z,99613.39
2017-07-15T10:02:27.011Z,99614.48
2017-07-15T10:04:52.864Z,99614.09
2017-07-15T10:07:18.823Z,99617.93
2017-07-15T10:09:44.720Z,99621.52
2017-07-15T10:12:10.965Z,99620.55
2017-07-15T10:14:36.861Z,99632.53
2017-07-15T10:17:02.697Z,99634.95
2017-07-15T10:19:28.555Z,99632.80
2017-07-15T10:21:54.373Z,99637.69
2017-07-15T10:24:20.559Z,99639.20
2017-07-15T10:26:46.969Z,99636.41
2017-07-15T10:29:12.930Z,99633.03
2017-07-15T10:31:39.524Z,99634.23
2017-07-15T10:34:05.379Z,99628.23
2017-07-15T10:36:31.273Z,99627.85
2017-07-15T10:38:57.127Z,99627.06
2017-07-15T10:41:23.005Z,99629.11
2017-07-15T10:43:49.125Z,99636.59
2017-07-15T10:46:15.339Z,99643.58
2017-07-15T10:48:41.636Z,99642.34
2017-07-15T10:51:07.463Z,99635.69
2017-07-15T10:53:33.316Z,99639.08
2017-07-15T10:55:59.139Z,99637.17
2017-07-15T10:58:25.054Z,99631.19
2017-07-15T11:00:50.937Z,99645.34
2017-07-15T11:03:16.846Z,99641.51
2017-07-15T11:05:42.663Z,99633.66
2017-07-15T11:08:08.574Z,99632.55
2017-07-15T11:10:34.422Z,99626.59
2017-07-15T11:13:00.332Z,99624.78
2017-07-15T11:15:26.225Z,99624.12
2017-07-15T11:17:52.057Z,99630.34
2017-07-15T11:20:17.928Z,99631.17
2017-07-15T11:22:43.821Z,99620.58
2017-07-15T11:25:09.696Z,99620.44
2017-07-15T11:27:35.618Z,99622.76
2017-07-15T11:30:01.522Z,99623.45
2017-07-15T11:32:27.434Z,99623.97
2017-07-15T11:34:53.505Z,99627.90
2017-07-15T11:37:19.357Z,99634.03
2017-07-15T11:39:45.461Z,99636.89
2017-07-15T11:42:11.432Z,99630.75
2017-07-15T11:44:37.263Z,99631.56
2017-07-15T11:47:03.099Z,99640.13
2017-07-15T11:49:28.950Z,99644.64
2017-07-15T11:51:54.780Z,99637.42
2017-07-15T11:54:20.628Z,99635.96
2017-07-15T11:56:46.468Z,99626.97
2017-07-15T11:59:12.360Z,99628.62
2017-07-15T12:01:38.223Z,99626.72
2017-07-15T12:04:04.089Z,99632.56
2017-07-15T12:06:29.980Z,99634.31
2017-07-15T12:08:55.900Z,99627.26
2017-07-15T12:11:21.842Z,99623.31
2017-07-15T12:13:47.804Z,99616.34
2017-07-15T12:16:13.689Z,99627.10
2017-07-15T12:18:39.528Z,99627.91
2017-07-15T12:21:05.476Z,99626.13
2017-07-15T12:23:31.639Z,99627.77
2017-07-15T12:25:57.540Z,99634.15
2017-07-15T12:28:23.400Z,99622.97
2017-07-15T12:30:49.297Z,99627.45
2017-07-15T12:33:15.743Z,99624.68
2017-07-15T12:35:41.745Z,99618.32
2017-07-15T12:38:07.564Z,99617.73
2017-07-15T12:40:33.455Z,99621.30
2017-07-15T12:42:59.358Z,99619.37
2017-07-15T12:45:25.193Z,99614.92
2017-07-15T12:47:51.063Z,99613.98
2017-07-15T12:50:16.938Z,99616.58
2017-07-15T12:52:42.813Z,99615.37
2017-07-15T12:55:08.659Z,99617.97
2017-07-15T12:57:34.558Z,99608.84
2017-07-15T13:00:00.413Z,99607.22
2017-07-15T13:02:26.241Z,99610.75
2017-07-15T13:04:52.126Z,99614.41
2017-07-15T13:07:17.966Z,99611.44
2017-07-15T13:09:43.804Z,99612.41
2017-07-15T13:12:09.646Z,99615.38
2017-07-15T13:14:35.510Z,99608.70
2017-07-15T13:17:01.365Z,99612.65
2017-07-15T13:19:27.218Z,99620.70
2017-07-15T13:21:53.045Z,99610.89
2017-07-15T13:24:18.917Z,99615.39
2017-07-15T13:26:44.791Z,99629.55
2017-07-15T13:29:11.335Z,99625.73
2017-07-15T13:31:37.225Z,99620.59
2017-07-15T13:34:03.060Z,99625.84
2017-07-15T13:36:28.926Z,99617.02
2017-07-15T13:38:54.782Z,99617.30
2017-07-15T13:41:20.714Z,99617.84
2017-07-15T13:43:46.599Z,99612.80
2017-07-15T13:46:12.469Z,99611.99
2017-07-15T13:48:38.298Z,99609.70
2017-07-15T13:51:04.158Z,99607.38
2017-07-15T13:53:30.031Z,99608.48
2017-07-15T13:55:55.857Z,99611.05
2017-07-15T13:58:21.715Z,99605.22
2017-07-15T14:00:47.567Z,99609.14
2017-07-15T14:03:13.432Z,99612.69
2017-07-15T14:05:39.319Z,99602.63
2017-07-15T14:08:05.216Z,99609.43
2017-07-15T14:10:31.023Z,99611.91
2017-07-15T14:12:56.902Z,99607.27
2017-07-15T14:15:22.799Z,99611.89
2017-07-15T14:17:48.701Z,99615.59
2017-07-15T14:20:14.688Z,99611.09
2017-07-15T14:22:40.520Z,99615.99
2017-07-15T14:25:06.413Z,99607.41
2017-07-15T14:27:32.250Z,99616.53
2017-07-15T14:29:58.198Z,99619.69
2017-07-15T14:32:24.036Z,99620.22
2017-07-15T14:34:49.935Z,99619.69
2017-07-15T14:37:15.792Z,99624.44
2017-07-15T14:39:41.639Z,99623.86
2017-07-15T14:42:07.521Z,99617.45
2017-07-15T14:44:33.419Z,99623.47
2017-07-15T14:46:59.294Z,99623.62
2017-07-15T14:49:25.151Z,99622.66
2017-07-15T14:51:51.008Z,99624.15
2017-07-15T14:54:16.887Z,99622.93
2017-07-15T14:56:42.736Z,99621.58
2017-07-15T14:59:08.583Z,99618.84
2017-07-15T15:01:34.657Z,99614.73
2017-07-15T15:04:00.553Z,99617.98
2017-07-15T15:06:26.417Z,99617.45
2017-07-15T15:08:52.557Z,99624.25
2017-07-15T15:11:18.449Z,99620.69
2017-07-15T15:13:44.356Z,99624.91
2017-07-15T15:16:10.225Z,99618.22
2017-07-15T15:18:36.096Z,99616.61
2017-07-15T15:21:01.946Z,99613.63
2017-07-15T15:23:27.817Z,99608.69
2017-07-15T15:25:53.687Z,99611.83
2017-07-15T15:28:19.546Z,99604.89
2017-07-15T15:30:45.460Z,99605.40
2017-07-15T15:33:11.325Z,99609.64
2017-07-15T15:35:37.173Z,99608.54
2017-07-15T15:38:03.019Z,99603.23
2017-07-15T15:40:28.861Z,99603.08
2017-07-15T15:42:54.768Z,99609.08
2017-07-15T15:45:20.624Z,99603.50
2017-07-15T15:47:46.540Z,99597.86
2017-07-15T15:50:12.387Z,99593.49
2017-07-15T15:52:38.239Z,99601.27
2017-07-15T15:55:04.085Z,99593.18
2017-07-15T15:57:29.997Z,99592.77
2017-07-15T15:59:55.897Z,99590.95
2017-07-15T16:02:21.862Z,99589.72
2017-07-15T16:04:47.760Z,99593.27
2017-07-15T16:07:13.987Z,99585.50
2017-07-15T16:09:39.931Z,99589.59
2017-07-15T16:12:06.266Z,99593.02
2017-07-15T16:14:32.157Z,99581.25
2017-07-15T16:16:57.998Z,99589.72
2017-07-15T16:19:23.887Z,99590.55
2017-07-15T16:21:49.709Z,99593.11
2017-07-15T16:24:16.469Z,99590.92
2017-07-15T16:26:42.311Z,99596.25
2017-07-15T16:29:08.206Z,99596.92
2017-07-15T16:31:34.058Z,99592.98
2017-07-15T16:33:59.879Z,99599.14
2017-07-15T16:36:25.747Z,99599.55
2017-07-15T16:38:51.622Z,99593.66
2017-07-15T16:41:17.513Z,99592.45
2017-07-15T16:43:43.375Z,99596.70
2017-07-15T16:46:09.223Z,99594.92
2017-07-15T16:48:35.064Z,99593.69
2017-07-15T16:51:00.934Z,99597.63
2017-07-15T16:53:26.791Z,99602.03
2017-07-15T16:55:52.616Z,99602.82
2017-07-15T16:58:18.470Z,99607.33
2017-07-15T17:00:44.318Z,99611.83
2017-07-15T17:03:10.214Z,99603.52
2017-07-15T17:05:36.122Z,99601.33
2017-07-15T17:08:02.212Z,99605.17
2017-07-15T17:10:28.176Z,99602.70
2017-07-15T17:12:54.101Z,99600.95
2017-07-15T17:15:19.987Z,99602.57
2017-07-15T17:17:45.825Z,99604.89
2017-07-15T17:20:11.679Z,99604.63
2017-07-15T17:22:37.522Z,99602.31
2017-07-15T17:25:03.400Z,99596.70
2017-07-15T17:27:29.327Z,99598.61
2017-07-15T17:29:55.359Z,99601.36
2017-07-15T17:32:21.207Z,99605.58
2017-07-15T17:34:47.162Z,99600.25
2017-07-15T17:37:13.032Z,99598.92
2017-07-15T17:39:38.878Z,99608.21
2017-07-15T17:42:04.755Z,99602.98
2017-07-15T17:44:30.632Z,99606.41
2017-07-15T17:46:56.492Z,99610.78
2017-07-15T17:49:22.361Z,99612.81
2017-07-15T17:51:48.215Z,99606.41
2017-07-15T17:54:14.090Z,99603.27
2017-07-15T17:56:39.927Z,99603.96
2017-07-15T17:59:05.784Z,99599.05
2017-07-15T18:01:33.430Z,99605.89
2017-07-15T18:03:59.313Z,99604.53
2017-07-15T18:06:25.166Z,99603.14
2017-07-15T18:08:51.018Z,99610.81
2017-07-15T18:11:16.854Z,99613.64
2017-07-15T18:13:42.706Z,99607.39
2017-07-15T18:16:08.527Z,99610.81
2017-07-15T18:18:34.447Z,99612.28
2017-07-15T18:21:00.263Z,99606.56
2017-07-15T18:23:26.341Z,99605.77
2017-07-15T18:25:52.251Z,99604.41
2017-07-15T18:28:18.095Z,99602.05
2017-07-15T18:30:43.981Z,99609.16
2017-07-15T18:33:09.863Z,99604.25
2017-07-15T18:35:35.787Z,99615.70
2017-07-15T18:38:01.622Z,99619.66
2017-07-15T18:40:27.493Z,99617.47
2017-07-15T18:42:53.351Z,99612.97
2017-07-15T18:45:19.217Z,99616.37
2017-07-15T18:47:45.877Z,99616.52
2017-07-15T18:50:11.858Z,99615.57
2017-07-15T18:52:37.698Z,99620.87
2017-07-15T18:55:03.550Z,99625.25
2017-07-15T18:57:29.695Z,99618.58
2017-07-15T18:59:55.538Z,99626.48
2017-07-15T19:02:21.396Z,99626.07
2017-07-15T19:04:47.238Z,99626.33
2017-07-15T19:07:13.127Z,99621.72
2017-07-15T19:09:38.980Z,99627.84
2017-07-15T19:12:04.875Z,99632.77
2017-07-15T19:14:30.725Z,99635.36
2017-07-15T19:16:56.650Z,99634.53
2017-07-15T19:19:22.507Z,99641.36
2017-07-15T19:21:48.344Z,99644.91
2017-07-15T19:24:14.202Z,99645.33
2017-07-15T19:26:40.342Z,99648.84
2017-07-15T19:29:06.216Z,99652.14
2017-07-15T19:31:32.051Z,99658.39
2017-07-15T19:33:58.028Z,99660.04
2017-07-15T19:36:23.941Z,99663.05
2017-07-15T19:38:49.773Z,99662.77
2017-07-15T19:41:15.766Z,99661.43
2017-07-15T19:43:41.648Z,99666.88
2017-07-15T19:46:07.517Z,99670.16
2017-07-15T19:48:33.845Z,99671.64
2017-07-15T19:50:59.841Z,99671.52
2017-07-15T19:53:25.676Z,99674.37
2017-07-15T19:55:51.540Z,99678.34
2017-07-15T19:58:17.393Z,99671.49
2017-07-15T20:00:43.417Z,99679.28
2017-07-15T20:03:09.288Z,99681.19
2017-07-15T20:05:35.116Z,99692.52
2017-07-15T20:08:00.981Z,99689.78
2017-07-15T20:10:26.813Z,99686.93
2017-07-15T20:12:52.668Z,99683.66
2017-07-15T20:15:18.492Z,99688.98
2017-07-15T20:17:44.836Z,99683.24
2017-07-15T20:20:10.687Z,99686.52
2017-07-15T20:22:36.541Z,99686.66
2017-07-15T20:25:02.372Z,99693.61
2017-07-15T20:27:38.293Z,99695.11
2017-07-15T20:30:04.167Z,99696.05
2017-07-15T20:32:30.032Z,99694.59
2017-07-15T20:34:55.877Z,99686.92
2017-07-15T20:37:21.789Z,99687.36
2017-07-15T20:39:47.681Z,99694.30
2017-07-15T20:42:13.517Z,99696.08
2017-07-15T20:44:39.437Z,99700.43
2017-07-15T20:47:05.287Z,99698.27
2017-07-15T20:49:31.216Z,99697.16
2017-07-15T20:52:16.929Z,99697.98
2017-07-15T20:54:42.788Z,99695.38
2017-07-15T20:57:08.617Z,99697.31
2017-07-15T20:59:34.707Z,99707.26
2017-07-15T21:02:00.589Z,99710.95
2017-07-15T21:04:26.450Z,99712.72
2017-07-15T21:06:52.290Z,99709.45
2017-07-15T21:09:18.097Z,99710.40
2017-07-15T21:11:43.963Z,99717.77
2017-07-15T21:14:09.857Z,99719.52
2017-07-15T21:16:35.760Z,99715.70
2017-07-15T21:19:03.285Z,99712.17
2017-07-15T21:21:29.171Z,99713.02
2017-07-15T21:23:55.004Z,99710.81
2017-07-15T21:26:20.859Z,99705.91
2017-07-15T21:28:46.725Z,99705.48
2017-07-15T21:31:20.886Z,99704.27
2017-07-15T21:33:46.725Z,99702.77
2017-07-15T21:36:17.496Z,99708.21
2017-07-15T21:38:43.366Z,99711.64
2017-07-15T21:41:09.200Z,99712.73
2017-07-15T21:43:35.098Z,99699.10
2017-07-15T21:46:00.929Z,99703.31
2017-07-15T21:48:26.768Z,99698.00
2017-07-15T21:50:52.600Z,99699.78
2017-07-15T21:53:18.417Z,99704.96
2017-07-15T21:55:44.268Z,99703.06
2017-07-15T21:58:10.112Z,99699.36
2017-07-15T22:00:35.957Z,99698.66
2017-07-15T22:03:01.784Z,99701.00
2017-07-15T22:05:27.643Z,99702.89
2017-07-15T22:07:53.474Z,99701.55
2017-07-15T22:10:19.445Z,99701.13
2017-07-15T22:12:45.308Z,99702.24
2017-07-15T22:15:11.209Z,99706.19
2017-07-15T22:17:37.088Z,99711.36
2017-07-15T22:20:02.934Z,99715.05
2017-07-15T22:22:28.798Z,99712.17
2017-07-15T22:24:54.674Z,99716.01
2017-07-15T22:27:20.620Z,99714.64
2017-07-15T22:29:46.454Z,99718.05
2017-07-15T22:32:43.244Z,99714.37
2017-07-15T22:35:12.561Z,99716.95
2017-07-15T22:37:38.714Z,99719.82
2017-07-15T22:40:04.616Z,99714.62
2017-07-15T22:42:30.445Z,99719.00
2017-07-15T22:44:56.313Z,99723.08
2017-07-15T22:47:22.133Z,99723.34
2017-07-15T22:49:47.996Z,99724.03
2017-07-15T22:52:14.782Z,99722.95
2017-07-15T22:54:40.677Z,99717.49
2017-07-15T22:57:06.544Z,99718.45
2017-07-15T22:59:32.431Z,99721.84
2017-07-15T23:01:58.264Z,99722.11
2017-07-15T23:04:24.100Z,99720.48
2017-07-15T23:06:49.946Z,99721.56
2017-07-15T23:09:15.881Z,99720.05
2017-07-15T23:11:54.532Z,99715.85
2017-07-15T23:14:27.068Z,99719.51
2017-07-15T23:16:57.584Z,99717.61
2017-07-15T23:19:23.404Z,99715.14
2017-07-15T23:21:49.240Z,99716.64
2017-07-15T23:24:15.093Z,99715.67
2017-07-15T23:26:40.923Z,99711.75
2017-07-15T23:29:07.026Z,99715.27
2017-07-15T23:31:32.866Z,99709.02
2017-07-15T23:33:58.700Z,99712.94
2017-07-15T23:36:24.557Z,99720.58
2017-07-15T23:38:50.440Z,99712.81
2017-07-15T23:41:18.465Z,99716.08
2017-07-15T23:43:45.079Z,99707.33
2017-07-15T23:46:10.936Z,99713.33
2017-07-15T23:48:36.788Z,99715.23
2017-07-15T23:51:02.644Z,99708.16
2017-07-15T23:53:28.465Z,99706.48
2017-07-15T23:55:54.317Z,99712.52
2017-07-15T23:58:20.153Z,99704.33
